Airfield :
LOGIN :

Register | Disclaimer

   EN    FR    IT 

 










Legend :    VFR   Marginal VFR   IFR   Intensive IFR   Very Intensive IFR
Visi :
Ceiling :
>= 8 km
>= 3000ft
5 to 8 km
1000 to 3000 ft
1500m to 5 km
500 to 1000 ft
800 to 1500m
200 to 500 ft
< 800m
< 200 ft
Symbols :   Thunderstorms  Fog  Heavy snow  Heavy precipitations  Wind > 20 kt
SIGMETs :     Misc.  Thunderstorms  Icing  Turbulence  Mountain Waves  Volcanic Ashes







- Airport Elevation : 124 ft
- IATA code : RNS
- Download approach charts


LFRN - Rennes

CURRENT METAR :
  • 171900Z AUTO 32013KT 290V350 CAVOK 20/11 Q1015 NOSIG

EXPIRED METARs :
  • 171830Z AUTO 32012KT 300V360 CAVOK 21/12 Q1014 NOSIG
  • 171800Z AUTO 33013KT 310V010 CAVOK 22/13 Q1014 NOSIG
  • 171730Z AUTO 34011KT CAVOK 22/13 Q1014 NOSIG
  • 171700Z AUTO 33014KT CAVOK 23/13 Q1014 TEMPO 34015G25KT
  • 171630Z AUTO 34016KT CAVOK 25/12 Q1014 TEMPO 34015G25KT

TAF TAF LFRN
Valid from the 17 at 18:00 until the 18 at 18:00 UTC


171700Z 1718/1818 34015G25KT CAVOK
BECMG 1718/1720 34010KT
BECMG 1722/1724 VRB03KT
BECMG 1804/1806 22008KT
BECMG 1806/1808 BKN015
TEMPO 1808/1811 4000 RADZ BKN008
BECMG 1811/1813 VRB05KT BKN030
TEMPO 1811/1815 5000 SHRA
ATIS : +33 2 99 67 72 50
No reported NOTAMs for that airfield.



MET'MAP, your aeronautical weather chart ! - Copyright ORBIFLY December 2007 - Disclaimer

ORBIFLY MET'MAP TEAM :

Programming & Development : Alexandra Zaïnal
Concept & Development : Baudouin d'Aumeries
Co-Development & Prog : Marc-Olivier Méhu
Technical & hardware support : Manuel Goepfert

Contact : metmap@orbifly.com




SOURCES & CREDITS :

   NOAA